sensor_id;sensor_type;location;lat;lon;timestamp;P1;durP1;ratioP1;P2;durP2;ratioP2
19171;SDS011;9718;52.200;21.052;2022-11-15T00:01:08;23.53;;;11.70;;
19171;SDS011;9718;52.200;21.052;2022-11-15T00:03:39;24.30;;;11.97;;
19171;SDS011;9718;52.200;21.052;2022-11-15T00:06:06;24.33;;;11.93;;
19171;SDS011;9718;52.200;21.052;2022-11-15T00:08:36;28.57;;;12.87;;
19171;SDS011;9718;52.200;21.052;2022-11-15T00:11:03;24.00;;;12.30;;
19171;SDS011;9718;52.200;21.052;2022-11-15T00:13:34;28.30;;;12.53;;
19171;SDS011;9718;52.200;21.052;2022-11-15T00:16:01;29.17;;;12.97;;
19171;SDS011;9718;52.200;21.052;2022-11-15T00:18:30;28.40;;;13.53;;
19171;SDS011;9718;52.200;21.052;2022-11-15T00:21:03;27.57;;;13.93;;
19171;SDS011;9718;52.200;21.052;2022-11-15T00:23:34;27.50;;;14.00;;
19171;SDS011;9718;52.200;21.052;2022-11-15T00:26:02;25.83;;;12.53;;
19171;SDS011;9718;52.200;21.052;2022-11-15T00:28:29;28.73;;;15.23;;
19171;SDS011;9718;52.200;21.052;2022-11-15T00:31:01;30.87;;;14.53;;
19171;SDS011;9718;52.200;21.052;2022-11-15T00:33:29;29.63;;;13.57;;
19171;SDS011;9718;52.200;21.052;2022-11-15T00:36:01;34.47;;;16.17;;
19171;SDS011;9718;52.200;21.052;2022-11-15T00:38:32;29.13;;;14.80;;
19171;SDS011;9718;52.200;21.052;2022-11-15T00:41:00;30.03;;;14.83;;
19171;SDS011;9718;52.200;21.052;2022-11-15T00:43:35;30.20;;;13.90;;
19171;SDS011;9718;52.200;21.052;2022-11-15T00:46:02;29.50;;;14.90;;
19171;SDS011;9718;52.200;21.052;2022-11-15T00:48:30;29.20;;;14.07;;
19171;SDS011;9718;52.200;21.052;2022-11-15T00:50:57;30.57;;;14.57;;
19171;SDS011;9718;52.200;21.052;2022-11-15T00:53:25;29.67;;;14.63;;
19171;SDS011;9718;52.200;21.052;2022-11-15T00:55:52;34.57;;;15.27;;
19171;SDS011;9718;52.200;21.052;2022-11-15T00:58:20;26.53;;;13.10;;
19171;SDS011;9718;52.200;21.052;2022-11-15T01:00:47;31.77;;;15.60;;
19171;SDS011;9718;52.200;21.052;2022-11-15T01:03:14;32.83;;;16.33;;
19171;SDS011;9718;52.200;21.052;2022-11-15T01:05:41;35.93;;;16.97;;
19171;SDS011;9718;52.200;21.052;2022-11-15T01:08:15;35.43;;;16.67;;
19171;SDS011;9718;52.200;21.052;2022-11-15T01:10:42;33.27;;;16.70;;
19171;SDS011;9718;52.200;21.052;2022-11-15T01:13:09;36.63;;;15.30;;
19171;SDS011;9718;52.200;21.052;2022-11-15T01:15:40;35.27;;;16.40;;
19171;SDS011;9718;52.200;21.052;2022-11-15T01:18:08;33.37;;;14.70;;
19171;SDS011;9718;52.200;21.052;2022-11-15T01:20:39;34.63;;;15.40;;
19171;SDS011;9718;52.200;21.052;2022-11-15T01:23:08;37.93;;;16.77;;
19171;SDS011;9718;52.200;21.052;2022-11-15T01:25:36;34.43;;;16.60;;
19171;SDS011;9718;52.200;21.052;2022-11-15T01:28:03;36.00;;;17.00;;
19171;SDS011;9718;52.200;21.052;2022-11-15T01:30:30;38.57;;;17.93;;
19171;SDS011;9718;52.200;21.052;2022-11-15T01:32:58;37.33;;;17.60;;
19171;SDS011;9718;52.200;21.052;2022-11-15T01:35:25;37.43;;;17.13;;
19171;SDS011;9718;52.200;21.052;2022-11-15T01:37:52;34.43;;;16.80;;
19171;SDS011;9718;52.200;21.052;2022-11-15T01:40:20;35.00;;;16.97;;
19171;SDS011;9718;52.200;21.052;2022-11-15T01:42:47;37.80;;;17.40;;
19171;SDS011;9718;52.200;21.052;2022-11-15T01:45:14;40.03;;;18.23;;
19171;SDS011;9718;52.200;21.052;2022-11-15T01:47:43;50.03;;;20.00;;
19171;SDS011;9718;52.200;21.052;2022-11-15T01:50:16;39.27;;;17.20;;
19171;SDS011;9718;52.200;21.052;2022-11-15T01:52:47;39.83;;;18.33;;
19171;SDS011;9718;52.200;21.052;2022-11-15T01:55:16;35.07;;;16.90;;
19171;SDS011;9718;52.200;21.052;2022-11-15T01:57:49;34.00;;;16.63;;
19171;SDS011;9718;52.200;21.052;2022-11-15T02:00:19;35.90;;;16.17;;
19171;SDS011;9718;52.200;21.052;2022-11-15T02:02:46;37.30;;;16.30;;
19171;SDS011;9718;52.200;21.052;2022-11-15T02:05:14;45.23;;;18.80;;
19171;SDS011;9718;52.200;21.052;2022-11-15T02:07:42;39.53;;;18.17;;
19171;SDS011;9718;52.200;21.052;2022-11-15T02:10:16;36.80;;;16.40;;
19171;SDS011;9718;52.200;21.052;2022-11-15T02:12:46;41.20;;;17.23;;
19171;SDS011;9718;52.200;21.052;2022-11-15T02:15:15;40.50;;;17.33;;
19171;SDS011;9718;52.200;21.052;2022-11-15T02:34:35;36.80;;;16.00;;
19171;SDS011;9718;52.200;21.052;2022-11-15T02:42:32;37.43;;;16.97;;
19171;SDS011;9718;52.200;21.052;2022-11-15T02:45:35;38.87;;;16.67;;
19171;SDS011;9718;52.200;21.052;2022-11-15T02:48:07;42.80;;;18.07;;
19171;SDS011;9718;52.200;21.052;2022-11-15T02:50:37;38.73;;;16.70;;
19171;SDS011;9718;52.200;21.052;2022-11-15T02:53:05;43.53;;;17.97;;
19171;SDS011;9718;52.200;21.052;2022-11-15T02:55:35;41.20;;;17.73;;
19171;SDS011;9718;52.200;21.052;2022-11-15T03:03:59;41.17;;;16.77;;
19171;SDS011;9718;52.200;21.052;2022-11-15T03:09:51;41.03;;;18.77;;
19171;SDS011;9718;52.200;21.052;2022-11-15T03:12:27;39.70;;;16.87;;
19171;SDS011;9718;52.200;21.052;2022-11-15T03:15:01;43.23;;;18.40;;
19171;SDS011;9718;52.200;21.052;2022-11-15T03:17:44;43.70;;;19.03;;
19171;SDS011;9718;52.200;21.052;2022-11-15T03:20:20;43.90;;;18.93;;
19171;SDS011;9718;52.200;21.052;2022-11-15T03:22:47;44.43;;;19.13;;
19171;SDS011;9718;52.200;21.052;2022-11-15T03:25:18;42.37;;;18.03;;
19171;SDS011;9718;52.200;21.052;2022-11-15T03:27:48;47.83;;;19.40;;
19171;SDS011;9718;52.200;21.052;2022-11-15T03:30:19;40.33;;;17.97;;
19171;SDS011;9718;52.200;21.052;2022-11-15T03:32:47;42.00;;;18.57;;
19171;SDS011;9718;52.200;21.052;2022-11-15T03:35:20;42.90;;;18.80;;
19171;SDS011;9718;52.200;21.052;2022-11-15T03:38:06;42.67;;;17.33;;
19171;SDS011;9718;52.200;21.052;2022-11-15T03:46:08;45.37;;;18.97;;
19171;SDS011;9718;52.200;21.052;2022-11-15T03:49:08;40.87;;;19.03;;
19171;SDS011;9718;52.200;21.052;2022-11-15T03:51:40;42.10;;;19.37;;
19171;SDS011;9718;52.200;21.052;2022-11-15T03:54:07;45.50;;;19.50;;
19171;SDS011;9718;52.200;21.052;2022-11-15T03:56:34;47.40;;;20.03;;
19171;SDS011;9718;52.200;21.052;2022-11-15T03:59:01;48.13;;;20.20;;
19171;SDS011;9718;52.200;21.052;2022-11-15T04:01:29;44.50;;;19.57;;
19171;SDS011;9718;52.200;21.052;2022-11-15T04:03:56;49.07;;;20.33;;
19171;SDS011;9718;52.200;21.052;2022-11-15T04:06:23;42.80;;;18.70;;
19171;SDS011;9718;52.200;21.052;2022-11-15T04:08:50;49.17;;;20.23;;
19171;SDS011;9718;52.200;21.052;2022-11-15T04:11:18;45.97;;;19.17;;
19171;SDS011;9718;52.200;21.052;2022-11-15T04:13:45;45.80;;;20.33;;
19171;SDS011;9718;52.200;21.052;2022-11-15T04:16:12;42.47;;;18.67;;
19171;SDS011;9718;52.200;21.052;2022-11-15T04:18:43;44.67;;;18.60;;
19171;SDS011;9718;52.200;21.052;2022-11-15T04:21:10;43.57;;;18.80;;
19171;SDS011;9718;52.200;21.052;2022-11-15T04:23:56;48.03;;;18.20;;
19171;SDS011;9718;52.200;21.052;2022-11-15T04:26:41;48.40;;;18.90;;
19171;SDS011;9718;52.200;21.052;2022-11-15T04:29:08;42.43;;;18.87;;
19171;SDS011;9718;52.200;21.052;2022-11-15T04:31:54;44.20;;;18.53;;
19171;SDS011;9718;52.200;21.052;2022-11-15T04:34:21;46.33;;;18.77;;
19171;SDS011;9718;52.200;21.052;2022-11-15T04:36:49;50.50;;;19.00;;
19171;SDS011;9718;52.200;21.052;2022-11-15T04:39:34;51.80;;;21.37;;
19171;SDS011;9718;52.200;21.052;2022-11-15T04:42:02;43.57;;;18.53;;
19171;SDS011;9718;52.200;21.052;2022-11-15T04:44:29;51.77;;;20.27;;
19171;SDS011;9718;52.200;21.052;2022-11-15T04:46:57;47.93;;;19.83;;
19171;SDS011;9718;52.200;21.052;2022-11-15T04:49:24;41.63;;;19.17;;
19171;SDS011;9718;52.200;21.052;2022-11-15T04:51:51;45.10;;;18.10;;
19171;SDS011;9718;52.200;21.052;2022-11-15T04:54:19;48.43;;;18.80;;
19171;SDS011;9718;52.200;21.052;2022-11-15T04:56:46;45.37;;;17.93;;
19171;SDS011;9718;52.200;21.052;2022-11-15T04:59:13;43.07;;;17.20;;
19171;SDS011;9718;52.200;21.052;2022-11-15T05:01:40;44.93;;;17.37;;
19171;SDS011;9718;52.200;21.052;2022-11-15T05:04:10;41.47;;;18.30;;
19171;SDS011;9718;52.200;21.052;2022-11-15T05:06:48;43.27;;;17.47;;
19171;SDS011;9718;52.200;21.052;2022-11-15T05:09:17;45.77;;;17.07;;
19171;SDS011;9718;52.200;21.052;2022-11-15T05:11:46;46.27;;;16.83;;
19171;SDS011;9718;52.200;21.052;2022-11-15T05:14:13;44.40;;;17.20;;
19171;SDS011;9718;52.200;21.052;2022-11-15T05:16:41;48.47;;;18.77;;
19171;SDS011;9718;52.200;21.052;2022-11-15T05:19:09;48.80;;;18.27;;
19171;SDS011;9718;52.200;21.052;2022-11-15T05:21:37;50.27;;;20.27;;
19171;SDS011;9718;52.200;21.052;2022-11-15T05:24:04;49.10;;;19.33;;
19171;SDS011;9718;52.200;21.052;2022-11-15T05:26:33;49.83;;;19.07;;
19171;SDS011;9718;52.200;21.052;2022-11-15T05:29:00;44.17;;;17.97;;
19171;SDS011;9718;52.200;21.052;2022-11-15T05:31:28;44.90;;;18.10;;
19171;SDS011;9718;52.200;21.052;2022-11-15T05:33:55;51.07;;;19.37;;
19171;SDS011;9718;52.200;21.052;2022-11-15T05:39:05;50.70;;;18.83;;
19171;SDS011;9718;52.200;21.052;2022-11-15T05:41:46;54.00;;;21.63;;
19171;SDS011;9718;52.200;21.052;2022-11-15T05:44:19;48.10;;;19.73;;
19171;SDS011;9718;52.200;21.052;2022-11-15T05:46:49;49.17;;;18.07;;
19171;SDS011;9718;52.200;21.052;2022-11-15T05:49:20;48.23;;;18.53;;
19171;SDS011;9718;52.200;21.052;2022-11-15T05:51:51;51.03;;;21.17;;
19171;SDS011;9718;52.200;21.052;2022-11-15T05:54:19;50.10;;;18.53;;
19171;SDS011;9718;52.200;21.052;2022-11-15T05:56:48;53.50;;;18.97;;
19171;SDS011;9718;52.200;21.052;2022-11-15T05:59:15;47.60;;;17.77;;
19171;SDS011;9718;52.200;21.052;2022-11-15T06:01:43;52.17;;;18.70;;
19171;SDS011;9718;52.200;21.052;2022-11-15T06:04:10;53.97;;;18.27;;
19171;SDS011;9718;52.200;21.052;2022-11-15T06:06:38;55.47;;;19.50;;
19171;SDS011;9718;52.200;21.052;2022-11-15T06:09:05;46.57;;;18.03;;
19171;SDS011;9718;52.200;21.052;2022-11-15T06:11:33;54.23;;;19.03;;
19171;SDS011;9718;52.200;21.052;2022-11-15T06:14:00;43.67;;;17.00;;
19171;SDS011;9718;52.200;21.052;2022-11-15T06:16:28;57.13;;;20.70;;
19171;SDS011;9718;52.200;21.052;2022-11-15T06:18:55;59.60;;;18.50;;
19171;SDS011;9718;52.200;21.052;2022-11-15T06:21:23;53.50;;;19.80;;
19171;SDS011;9718;52.200;21.052;2022-11-15T06:23:50;53.13;;;18.73;;
19171;SDS011;9718;52.200;21.052;2022-11-15T06:26:18;46.20;;;17.50;;
19171;SDS011;9718;52.200;21.052;2022-11-15T06:28:46;53.30;;;21.13;;
19171;SDS011;9718;52.200;21.052;2022-11-15T06:31:14;51.20;;;19.40;;
19171;SDS011;9718;52.200;21.052;2022-11-15T06:33:41;55.70;;;20.50;;
19171;SDS011;9718;52.200;21.052;2022-11-15T06:36:26;51.10;;;19.80;;
19171;SDS011;9718;52.200;21.052;2022-11-15T06:38:54;69.53;;;20.57;;
19171;SDS011;9718;52.200;21.052;2022-11-15T06:41:21;59.87;;;20.17;;
19171;SDS011;9718;52.200;21.052;2022-11-15T06:43:49;46.83;;;17.80;;
19171;SDS011;9718;52.200;21.052;2022-11-15T06:46:16;58.47;;;19.67;;
19171;SDS011;9718;52.200;21.052;2022-11-15T06:48:43;45.43;;;17.00;;
19171;SDS011;9718;52.200;21.052;2022-11-15T06:51:11;51.33;;;19.17;;
19171;SDS011;9718;52.200;21.052;2022-11-15T06:53:41;46.23;;;17.67;;
19171;SDS011;9718;52.200;21.052;2022-11-15T06:56:08;45.37;;;16.77;;
19171;SDS011;9718;52.200;21.052;2022-11-15T06:58:37;52.67;;;18.33;;
19171;SDS011;9718;52.200;21.052;2022-11-15T07:01:06;49.50;;;18.77;;
19171;SDS011;9718;52.200;21.052;2022-11-15T07:03:40;51.17;;;19.00;;
19171;SDS011;9718;52.200;21.052;2022-11-15T07:06:09;52.93;;;19.53;;
19171;SDS011;9718;52.200;21.052;2022-11-15T07:08:37;49.23;;;19.43;;
19171;SDS011;9718;52.200;21.052;2022-11-15T07:11:05;52.40;;;19.20;;
19171;SDS011;9718;52.200;21.052;2022-11-15T07:13:35;51.17;;;18.87;;
19171;SDS011;9718;52.200;21.052;2022-11-15T07:16:07;53.77;;;19.47;;
19171;SDS011;9718;52.200;21.052;2022-11-15T07:18:37;56.60;;;19.87;;
19171;SDS011;9718;52.200;21.052;2022-11-15T07:21:06;55.53;;;19.97;;
19171;SDS011;9718;52.200;21.052;2022-11-15T07:23:36;50.53;;;18.13;;
19171;SDS011;9718;52.200;21.052;2022-11-15T07:26:07;52.30;;;19.07;;
19171;SDS011;9718;52.200;21.052;2022-11-15T07:28:36;57.03;;;19.70;;
19171;SDS011;9718;52.200;21.052;2022-11-15T07:31:03;49.20;;;18.53;;
19171;SDS011;9718;52.200;21.052;2022-11-15T07:33:32;45.07;;;17.10;;
19171;SDS011;9718;52.200;21.052;2022-11-15T07:36:01;44.30;;;17.60;;
19171;SDS011;9718;52.200;21.052;2022-11-15T07:38:33;45.37;;;15.60;;
19171;SDS011;9718;52.200;21.052;2022-11-15T07:41:08;44.27;;;16.23;;
19171;SDS011;9718;52.200;21.052;2022-11-15T07:43:36;41.13;;;15.87;;
19171;SDS011;9718;52.200;21.052;2022-11-15T07:46:05;42.00;;;15.63;;
19171;SDS011;9718;52.200;21.052;2022-11-15T07:48:37;35.17;;;15.07;;
19171;SDS011;9718;52.200;21.052;2022-11-15T07:51:11;40.23;;;16.40;;
19171;SDS011;9718;52.200;21.052;2022-11-15T07:53:44;35.23;;;14.83;;
19171;SDS011;9718;52.200;21.052;2022-11-15T07:56:12;36.13;;;14.73;;
19171;SDS011;9718;52.200;21.052;2022-11-15T07:58:41;39.40;;;15.33;;
19171;SDS011;9718;52.200;21.052;2022-11-15T08:01:09;35.97;;;14.63;;
19171;SDS011;9718;52.200;21.052;2022-11-15T08:03:37;36.93;;;15.13;;
19171;SDS011;9718;52.200;21.052;2022-11-15T08:06:04;30.83;;;14.03;;
19171;SDS011;9718;52.200;21.052;2022-11-15T08:08:33;33.50;;;13.80;;
19171;SDS011;9718;52.200;21.052;2022-11-15T08:11:00;32.27;;;13.63;;
19171;SDS011;9718;52.200;21.052;2022-11-15T08:13:29;37.27;;;16.20;;
19171;SDS011;9718;52.200;21.052;2022-11-15T08:16:00;35.47;;;14.83;;
19171;SDS011;9718;52.200;21.052;2022-11-15T08:18:29;27.90;;;13.17;;
19171;SDS011;9718;52.200;21.052;2022-11-15T08:21:00;30.30;;;14.27;;
19171;SDS011;9718;52.200;21.052;2022-11-15T08:23:28;38.10;;;14.60;;
19171;SDS011;9718;52.200;21.052;2022-11-15T08:26:00;40.80;;;15.73;;
19171;SDS011;9718;52.200;21.052;2022-11-15T08:28:29;36.30;;;14.90;;
19171;SDS011;9718;52.200;21.052;2022-11-15T08:30:57;40.53;;;14.77;;
19171;SDS011;9718;52.200;21.052;2022-11-15T08:33:25;35.60;;;14.07;;
19171;SDS011;9718;52.200;21.052;2022-11-15T08:35:55;34.70;;;14.23;;
19171;SDS011;9718;52.200;21.052;2022-11-15T08:38:24;37.37;;;14.77;;
19171;SDS011;9718;52.200;21.052;2022-11-15T08:40:52;34.67;;;14.50;;
19171;SDS011;9718;52.200;21.052;2022-11-15T08:43:25;33.53;;;14.43;;
19171;SDS011;9718;52.200;21.052;2022-11-15T08:45:55;29.20;;;13.37;;
19171;SDS011;9718;52.200;21.052;2022-11-15T08:48:24;29.40;;;12.57;;
19171;SDS011;9718;52.200;21.052;2022-11-15T08:50:55;30.87;;;13.40;;
19171;SDS011;9718;52.200;21.052;2022-11-15T08:53:24;38.60;;;13.67;;
19171;SDS011;9718;52.200;21.052;2022-11-15T08:55:51;33.83;;;14.93;;
19171;SDS011;9718;52.200;21.052;2022-11-15T08:58:20;33.83;;;13.90;;
19171;SDS011;9718;52.200;21.052;2022-11-15T09:00:48;32.40;;;13.40;;
19171;SDS011;9718;52.200;21.052;2022-11-15T09:03:16;31.97;;;14.13;;
19171;SDS011;9718;52.200;21.052;2022-11-15T09:05:44;35.80;;;14.07;;
19171;SDS011;9718;52.200;21.052;2022-11-15T09:08:12;34.10;;;15.60;;
19171;SDS011;9718;52.200;21.052;2022-11-15T09:11:02;37.10;;;15.13;;
19171;SDS011;9718;52.200;21.052;2022-11-15T09:13:33;37.20;;;13.93;;
19171;SDS011;9718;52.200;21.052;2022-11-15T09:16:03;32.37;;;14.10;;
19171;SDS011;9718;52.200;21.052;2022-11-15T09:18:32;34.07;;;15.10;;
19171;SDS011;9718;52.200;21.052;2022-11-15T09:21:00;37.20;;;14.17;;
19171;SDS011;9718;52.200;21.052;2022-11-15T09:23:29;32.30;;;14.47;;
19171;SDS011;9718;52.200;21.052;2022-11-15T09:25:58;32.13;;;14.33;;
19171;SDS011;9718;52.200;21.052;2022-11-15T09:28:28;32.63;;;14.47;;
19171;SDS011;9718;52.200;21.052;2022-11-15T09:30:57;31.73;;;14.33;;
19171;SDS011;9718;52.200;21.052;2022-11-15T09:33:26;37.77;;;16.37;;
19171;SDS011;9718;52.200;21.052;2022-11-15T09:35:59;29.63;;;14.70;;
19171;SDS011;9718;52.200;21.052;2022-11-15T09:38:31;30.93;;;13.33;;
19171;SDS011;9718;52.200;21.052;2022-11-15T09:43:47;33.70;;;14.77;;
19171;SDS011;9718;52.200;21.052;2022-11-15T09:49:00;40.00;;;15.40;;
19171;SDS011;9718;52.200;21.052;2022-11-15T09:51:36;34.10;;;14.30;;
19171;SDS011;9718;52.200;21.052;2022-11-15T10:05:41;38.57;;;15.80;;
19171;SDS011;9718;52.200;21.052;2022-11-15T10:11:13;36.80;;;16.07;;
19171;SDS011;9718;52.200;21.052;2022-11-15T10:14:11;37.30;;;15.37;;
19171;SDS011;9718;52.200;21.052;2022-11-15T10:19:56;34.43;;;15.83;;
19171;SDS011;9718;52.200;21.052;2022-11-15T10:22:50;32.70;;;14.60;;
19171;SDS011;9718;52.200;21.052;2022-11-15T10:25:41;38.00;;;16.23;;
19171;SDS011;9718;52.200;21.052;2022-11-15T10:30:51;38.03;;;16.10;;
19171;SDS011;9718;52.200;21.052;2022-11-15T10:36:14;40.87;;;17.57;;
19171;SDS011;9718;52.200;21.052;2022-11-15T10:41:21;36.77;;;16.90;;
19171;SDS011;9718;52.200;21.052;2022-11-15T10:46:43;39.20;;;15.83;;
19171;SDS011;9718;52.200;21.052;2022-11-15T10:49:19;36.17;;;16.17;;
19171;SDS011;9718;52.200;21.052;2022-11-15T10:51:59;34.83;;;16.60;;
19171;SDS011;9718;52.200;21.052;2022-11-15T10:54:48;35.37;;;16.63;;
19171;SDS011;9718;52.200;21.052;2022-11-15T10:57:31;33.23;;;15.17;;
19171;SDS011;9718;52.200;21.052;2022-11-15T11:00:07;37.37;;;16.40;;
19171;SDS011;9718;52.200;21.052;2022-11-15T11:05:34;35.43;;;15.33;;
19171;SDS011;9718;52.200;21.052;2022-11-15T11:11:01;36.20;;;16.07;;
19171;SDS011;9718;52.200;21.052;2022-11-15T11:13:32;37.90;;;16.73;;
19171;SDS011;9718;52.200;21.052;2022-11-15T11:19:04;38.67;;;16.17;;
19171;SDS011;9718;52.200;21.052;2022-11-15T11:27:23;40.00;;;17.00;;
19171;SDS011;9718;52.200;21.052;2022-11-15T11:35:35;39.00;;;16.63;;
19171;SDS011;9718;52.200;21.052;2022-11-15T11:49:52;39.93;;;17.27;;
19171;SDS011;9718;52.200;21.052;2022-11-15T11:52:30;38.93;;;17.27;;
19171;SDS011;9718;52.200;21.052;2022-11-15T11:55:21;36.53;;;17.30;;
19171;SDS011;9718;52.200;21.052;2022-11-15T12:00:23;37.97;;;17.63;;
19171;SDS011;9718;52.200;21.052;2022-11-15T12:05:44;39.50;;;18.47;;
19171;SDS011;9718;52.200;21.052;2022-11-15T12:10:59;38.03;;;18.97;;
19171;SDS011;9718;52.200;21.052;2022-11-15T12:13:33;42.93;;;18.93;;
19171;SDS011;9718;52.200;21.052;2022-11-15T12:16:14;36.37;;;17.87;;
19171;SDS011;9718;52.200;21.052;2022-11-15T12:19:02;40.63;;;19.10;;
19171;SDS011;9718;52.200;21.052;2022-11-15T12:21:45;36.57;;;17.97;;
19171;SDS011;9718;52.200;21.052;2022-11-15T12:30:29;40.83;;;18.83;;
19171;SDS011;9718;52.200;21.052;2022-11-15T12:42:23;34.47;;;17.53;;
19171;SDS011;9718;52.200;21.052;2022-11-15T13:02:25;41.20;;;20.17;;
19171;SDS011;9718;52.200;21.052;2022-11-15T13:17:47;41.70;;;19.20;;
19171;SDS011;9718;52.200;21.052;2022-11-15T13:20:26;36.47;;;19.87;;
19171;SDS011;9718;52.200;21.052;2022-11-15T13:23:00;53.87;;;23.53;;
19171;SDS011;9718;52.200;21.052;2022-11-15T13:28:09;44.90;;;19.10;;
19171;SDS011;9718;52.200;21.052;2022-11-15T13:30:41;46.13;;;19.77;;
19171;SDS011;9718;52.200;21.052;2022-11-15T13:33:18;43.37;;;19.70;;
19171;SDS011;9718;52.200;21.052;2022-11-15T13:35:50;42.13;;;19.83;;
19171;SDS011;9718;52.200;21.052;2022-11-15T13:40:54;41.43;;;21.77;;
19171;SDS011;9718;52.200;21.052;2022-11-15T13:48:32;51.27;;;21.33;;
19171;SDS011;9718;52.200;21.052;2022-11-15T13:51:02;43.70;;;19.57;;
19171;SDS011;9718;52.200;21.052;2022-11-15T13:53:32;49.63;;;21.90;;
19171;SDS011;9718;52.200;21.052;2022-11-15T13:56:04;51.83;;;22.40;;
19171;SDS011;9718;52.200;21.052;2022-11-15T13:58:32;51.10;;;20.53;;
19171;SDS011;9718;52.200;21.052;2022-11-15T14:01:02;46.50;;;20.63;;
19171;SDS011;9718;52.200;21.052;2022-11-15T14:03:32;43.73;;;20.10;;
19171;SDS011;9718;52.200;21.052;2022-11-15T14:06:09;50.23;;;21.70;;
19171;SDS011;9718;52.200;21.052;2022-11-15T14:08:39;46.87;;;20.23;;
19171;SDS011;9718;52.200;21.052;2022-11-15T14:11:18;50.50;;;22.17;;
19171;SDS011;9718;52.200;21.052;2022-11-15T14:16:37;48.87;;;22.60;;
19171;SDS011;9718;52.200;21.052;2022-11-15T14:19:10;49.03;;;22.33;;
19171;SDS011;9718;52.200;21.052;2022-11-15T14:27:42;46.97;;;21.43;;
19171;SDS011;9718;52.200;21.052;2022-11-15T14:30:17;46.10;;;21.90;;
19171;SDS011;9718;52.200;21.052;2022-11-15T14:32:46;46.63;;;21.97;;
19171;SDS011;9718;52.200;21.052;2022-11-15T14:35:19;44.07;;;21.93;;
19171;SDS011;9718;52.200;21.052;2022-11-15T14:37:47;49.67;;;22.27;;
19171;SDS011;9718;52.200;21.052;2022-11-15T14:40:16;48.93;;;21.73;;
19171;SDS011;9718;52.200;21.052;2022-11-15T14:42:46;46.47;;;20.83;;
19171;SDS011;9718;52.200;21.052;2022-11-15T14:45:18;50.87;;;21.60;;
19171;SDS011;9718;52.200;21.052;2022-11-15T14:47:47;47.40;;;22.40;;
19171;SDS011;9718;52.200;21.052;2022-11-15T14:50:16;46.43;;;20.50;;
19171;SDS011;9718;52.200;21.052;2022-11-15T14:52:46;51.23;;;22.43;;
19171;SDS011;9718;52.200;21.052;2022-11-15T14:57:50;50.03;;;21.13;;
19171;SDS011;9718;52.200;21.052;2022-11-15T15:00:18;49.30;;;22.43;;
19171;SDS011;9718;52.200;21.052;2022-11-15T15:02:46;49.17;;;21.13;;
19171;SDS011;9718;52.200;21.052;2022-11-15T15:05:22;54.40;;;22.50;;
19171;SDS011;9718;52.200;21.052;2022-11-15T15:07:55;59.40;;;24.20;;
19171;SDS011;9718;52.200;21.052;2022-11-15T15:10:27;52.67;;;23.80;;
19171;SDS011;9718;52.200;21.052;2022-11-15T15:13:21;58.77;;;22.43;;
19171;SDS011;9718;52.200;21.052;2022-11-15T15:15:50;59.63;;;23.33;;
19171;SDS011;9718;52.200;21.052;2022-11-15T15:18:18;54.27;;;22.50;;
19171;SDS011;9718;52.200;21.052;2022-11-15T15:20:49;53.63;;;22.73;;
19171;SDS011;9718;52.200;21.052;2022-11-15T15:23:29;62.30;;;23.03;;
19171;SDS011;9718;52.200;21.052;2022-11-15T15:25:57;61.17;;;24.20;;
19171;SDS011;9718;52.200;21.052;2022-11-15T15:28:25;56.00;;;24.47;;
19171;SDS011;9718;52.200;21.052;2022-11-15T15:30:59;61.03;;;25.03;;
19171;SDS011;9718;52.200;21.052;2022-11-15T15:33:27;59.63;;;24.73;;
19171;SDS011;9718;52.200;21.052;2022-11-15T15:35:54;59.10;;;24.83;;
19171;SDS011;9718;52.200;21.052;2022-11-15T15:38:22;66.43;;;23.97;;
19171;SDS011;9718;52.200;21.052;2022-11-15T15:40:49;59.43;;;24.63;;
19171;SDS011;9718;52.200;21.052;2022-11-15T15:43:17;68.17;;;25.53;;
19171;SDS011;9718;52.200;21.052;2022-11-15T15:45:44;58.97;;;23.37;;
19171;SDS011;9718;52.200;21.052;2022-11-15T15:48:13;54.83;;;23.10;;
19171;SDS011;9718;52.200;21.052;2022-11-15T15:50:41;58.20;;;24.23;;
19171;SDS011;9718;52.200;21.052;2022-11-15T15:53:10;55.60;;;21.70;;
19171;SDS011;9718;52.200;21.052;2022-11-15T15:55:38;64.23;;;24.10;;
19171;SDS011;9718;52.200;21.052;2022-11-15T15:58:06;63.73;;;23.37;;
19171;SDS011;9718;52.200;21.052;2022-11-15T16:00:34;50.47;;;22.73;;
19171;SDS011;9718;52.200;21.052;2022-11-15T16:03:03;64.90;;;23.07;;
19171;SDS011;9718;52.200;21.052;2022-11-15T16:05:30;55.87;;;22.30;;
19171;SDS011;9718;52.200;21.052;2022-11-15T16:07:58;57.97;;;22.53;;
19171;SDS011;9718;52.200;21.052;2022-11-15T16:10:27;49.50;;;21.07;;
19171;SDS011;9718;52.200;21.052;2022-11-15T16:12:56;54.83;;;21.83;;
19171;SDS011;9718;52.200;21.052;2022-11-15T16:15:25;59.03;;;22.23;;
19171;SDS011;9718;52.200;21.052;2022-11-15T16:17:54;64.30;;;23.20;;
19171;SDS011;9718;52.200;21.052;2022-11-15T16:23:01;63.23;;;25.07;;
19171;SDS011;9718;52.200;21.052;2022-11-15T16:25:41;61.87;;;25.33;;
19171;SDS011;9718;52.200;21.052;2022-11-15T16:28:22;55.57;;;21.27;;
19171;SDS011;9718;52.200;21.052;2022-11-15T16:30:49;52.63;;;23.10;;
19171;SDS011;9718;52.200;21.052;2022-11-15T16:33:28;56.70;;;23.37;;
19171;SDS011;9718;52.200;21.052;2022-11-15T16:35:56;55.60;;;21.93;;
19171;SDS011;9718;52.200;21.052;2022-11-15T16:38:24;54.80;;;23.10;;
19171;SDS011;9718;52.200;21.052;2022-11-15T16:40:52;50.00;;;21.73;;
19171;SDS011;9718;52.200;21.052;2022-11-15T16:43:20;48.17;;;20.97;;
19171;SDS011;9718;52.200;21.052;2022-11-15T16:45:48;52.77;;;20.87;;
19171;SDS011;9718;52.200;21.052;2022-11-15T16:48:26;55.90;;;23.37;;
19171;SDS011;9718;52.200;21.052;2022-11-15T16:50:54;58.80;;;24.93;;
19171;SDS011;9718;52.200;21.052;2022-11-15T16:53:23;60.37;;;22.30;;
19171;SDS011;9718;52.200;21.052;2022-11-15T16:55:52;67.27;;;24.87;;
19171;SDS011;9718;52.200;21.052;2022-11-15T16:58:20;64.43;;;24.23;;
19171;SDS011;9718;52.200;21.052;2022-11-15T17:00:51;63.87;;;27.37;;
19171;SDS011;9718;52.200;21.052;2022-11-15T17:03:23;58.33;;;23.30;;
19171;SDS011;9718;52.200;21.052;2022-11-15T17:05:50;56.97;;;23.47;;
19171;SDS011;9718;52.200;21.052;2022-11-15T17:08:18;63.23;;;25.27;;
19171;SDS011;9718;52.200;21.052;2022-11-15T17:10:54;63.03;;;24.03;;
19171;SDS011;9718;52.200;21.052;2022-11-15T17:13:22;64.43;;;23.30;;
19171;SDS011;9718;52.200;21.052;2022-11-15T17:15:49;60.07;;;23.60;;
19171;SDS011;9718;52.200;21.052;2022-11-15T17:18:16;67.93;;;25.00;;
19171;SDS011;9718;52.200;21.052;2022-11-15T17:20:44;61.83;;;24.83;;
19171;SDS011;9718;52.200;21.052;2022-11-15T17:23:12;63.97;;;23.13;;
19171;SDS011;9718;52.200;21.052;2022-11-15T17:25:40;64.03;;;24.93;;
19171;SDS011;9718;52.200;21.052;2022-11-15T17:28:08;57.60;;;23.87;;
19171;SDS011;9718;52.200;21.052;2022-11-15T17:30:39;61.47;;;22.57;;
19171;SDS011;9718;52.200;21.052;2022-11-15T17:33:07;66.80;;;23.27;;
19171;SDS011;9718;52.200;21.052;2022-11-15T17:35:34;54.80;;;23.17;;
19171;SDS011;9718;52.200;21.052;2022-11-15T17:38:02;59.93;;;24.83;;
19171;SDS011;9718;52.200;21.052;2022-11-15T17:40:29;65.47;;;26.00;;
19171;SDS011;9718;52.200;21.052;2022-11-15T17:42:56;58.50;;;24.47;;
19171;SDS011;9718;52.200;21.052;2022-11-15T17:45:23;49.57;;;19.90;;